Time;durP1;ratioP1;P1;durP2;ratioP2;P2;SDS_P1;SDS_P2;PMS_P1;PMS_P2;Temp;Humidity;BMP_temperature;BMP_pressure;BME280_temperature;BME280_humidity;BME280_pressure;Samples;Min_cycle;Max_cycle;Signal;HPM_P1;HPM_P2
2024/01/24 22:01:19;;;;;;;;;;;;;;;;;;5044047;27;4776;-63
2024/01/24 22:03:44;;;;;;;;;;;;;;;;;;5028492;28;5033;-61
2024/01/24 22:06:10;;;;;;;;;;;;;;;;;;5031122;28;4612;-61
2024/01/24 22:08:35;;;;;;;;;;;;;;;;;;5015044;28;3852;-62
2024/01/24 22:11:00;;;;;;;;;;;;;;;;;;5020427;28;5156;-62
2024/01/24 22:13:26;;;;;;;;;;;;;;;;;;5026233;28;5217;-62
2024/01/24 22:15:51;;;;;;;;;;;;;;;;;;5038010;28;5036;-62
2024/01/24 22:18:16;;;;;;;;;;;;;;;;;;5022280;28;5180;-63
2024/01/24 22:20:41;;;;;;;;;;;;;;;;;;5012280;28;3323;-62
2024/01/24 22:23:07;;;;;;;;;;;;;;;;;;5022414;28;5242;-64
2024/01/24 22:25:32;;;;;;;;;;;;;;;;;;5015773;28;5190;-63
2024/01/24 22:27:57;;;;;;;;;;;;;;;;;;5012155;28;5098;-62
2024/01/24 22:30:23;;;;;;;;;;;;;;;;;;5009418;28;4713;-62
2024/01/24 22:32:48;;;;;;;;;;;;;;;;;;5006761;28;3767;-62
2024/01/24 22:35:13;;;;;;;;;;;;;;;;;;5018936;28;4455;-64
2024/01/24 22:37:38;;;;;;;;;;;;;;;;;;5010993;28;5304;-64
2024/01/24 22:40:04;;;;;;;;;;;;;;;;;;5020829;28;5157;-65
2024/01/24 22:42:30;;;;;;;;;;;;;;;;;;5029786;28;4594;-65
2024/01/24 22:44:55;;;;;;;;;;;;;;;;;;5040940;28;3628;-64
2024/01/24 22:47:20;;;;;;;;;;;;;;;;;;5012485;28;4898;-64
2024/01/24 22:49:46;;;;;;;;;;;;;;;;;;5015904;28;5110;-65
2024/01/24 22:52:11;;;;;;;;;;;;;;;;;;5012902;28;4681;-66
2024/01/24 22:54:36;;;;;;;;;;;;;;;;;;5020605;28;4703;-68
2024/01/24 22:57:02;;;;;;;;;;;;;;;;;;5017221;28;5268;-67
2024/01/24 22:59:27;;;;;;;;;;;;;;;;;;5037815;28;3535;-66
2024/01/24 23:01:53;;;;;;;;;;;;;;;;;;5010231;28;5135;-65
2024/01/24 23:04:18;;;;;;;;;;;;;;;;;;4988066;28;5318;-66
2024/01/24 23:06:44;;;;;;;;;;;;;;;;;;5021316;28;5670;-66
2024/01/24 23:09:10;;;;;;;;;;;;;;;;;;5038777;28;5088;-66
2024/01/24 23:11:35;;;;;;;;;;;;;;;;;;5037060;28;3792;-67
2024/01/24 23:14:00;;;;;;;;;;;;;;;;;;5005502;28;5366;-66
2024/01/24 23:16:26;;;;;;;;;;;;;;;;;;5002338;28;4672;-66
2024/01/24 23:18:53;;;;;;;;;;;;;;;;;;4991919;28;4604;-66
2024/01/24 23:21:18;;;;;;;;;;;;;;;;;;5004651;28;4591;-66
2024/01/24 23:23:44;;;;;;;;;;;;;;;;;;5008084;28;1319;-66
2024/01/24 23:26:09;;;;;;;;;;;;;;;;;;5002862;28;4439;-66
2024/01/24 23:28:34;;;;;;;;;;;;;;;;;;5015611;28;5066;-67
2024/01/24 23:31:00;;;;;;;;;;;;;;;;;;5031714;28;5086;-66
2024/01/24 23:33:27;;;;;;;;;;;;;;;;;;5030199;28;5261;-66
2024/01/24 23:35:53;;;;;;;;;;;;;;;;;;5040698;28;3297;-64
2024/01/24 23:38:18;;;;;;;;;;;;;;;;;;5037184;28;4758;-66
2024/01/24 23:40:43;;;;;;;;;;;;;;;;;;5029545;28;4645;-66
2024/01/24 23:43:09;;;;;;;;;;;;;;;;;;5030877;28;4513;-67
2024/01/24 23:45:34;;;;;;;;;;;;;;;;;;5034760;28;4525;-66
2024/01/24 23:47:59;;;;;;;;;;;;;;;;;;5044074;28;3331;-67
2024/01/24 23:50:24;;;;;;;;;;;;;;;;;;5033010;28;4441;-66
2024/01/24 23:52:56;;;;;;;;;;;;;;;;;;5041362;28;4544;-66
2024/01/24 23:55:21;;;;;;;;;;;;;;;;;;5032724;28;4536;-67
2024/01/24 23:57:47;;;;;;;;;;;;;;;;;;5043374;28;5081;-67
